Diana, New York
Current Conditions -  °F | °C
As of 3:58 PM on Tuesday 27 Jan 2015 (Local Time) from KGTB Reporting Station
Clear Clear  
Wind Chill: -7°   Ceiling: Unl
Heat Index: 10°   Visibility: 10mi
Dew Point: -6°   Wind: 17mph
Humidity: 48%   Direction: 40°NE
Pressure: 29.98"   Gusts: NA
Location:  44.1447°N, 75.2952°W
Report Text: KGTB 272058Z AUTO 04015KT 10SM CLR M12/M21 A2998 RMK AO2 SLP170 T11211211 52011
Loading
Personal Weather Stations






























Interactive Weather Map New forecast layout! Learn more

10-Day Weather Forecast

Advertisements
Track Severe Weather on mobile